createdAt,value
2022-08-22T00:00:11.605Z,26.36
2022-08-22T00:03:15.676Z,26.26
2022-08-22T00:06:16.643Z,26.42
2022-08-22T00:08:55.683Z,26.40
2022-08-22T00:11:49.185Z,26.37
2022-08-22T00:14:41.412Z,26.28
2022-08-22T00:17:39.701Z,26.25
2022-08-22T00:20:19.075Z,26.20
2022-08-22T00:23:08.132Z,26.32
2022-08-22T00:25:37.827Z,26.38
2022-08-22T00:28:28.519Z,26.37
2022-08-22T00:31:24.505Z,25.72
2022-08-22T00:34:16.282Z,26.27
2022-08-22T00:37:04.429Z,26.06
2022-08-22T00:39:56.529Z,26.17
2022-08-22T00:43:08.539Z,26.22
2022-08-22T00:46:07.754Z,25.77
2022-08-22T00:48:40.325Z,25.94
2022-08-22T00:51:30.533Z,25.23
2022-08-22T00:54:11.436Z,26.11
2022-08-22T00:56:50.125Z,26.07
2022-08-22T00:59:34.436Z,25.85
2022-08-22T01:02:07.331Z,25.65
2022-08-22T01:04:49.907Z,25.56
2022-08-22T01:07:51.052Z,25.53
2022-08-22T01:10:32.884Z,25.17
2022-08-22T01:13:10.696Z,25.24
2022-08-22T01:15:38.121Z,24.94
2022-08-22T01:18:23.462Z,25.35
2022-08-22T01:21:27.661Z,25.27
2022-08-22T01:24:13.134Z,25.29
2022-08-22T01:27:05.560Z,25.24
2022-08-22T01:29:44.464Z,25.05
2022-08-22T01:32:43.304Z,25.13
2022-08-22T01:35:26.418Z,24.24
2022-08-22T01:38:44.729Z,25.03
2022-08-22T01:41:14.709Z,25.00
2022-08-22T01:44:00.333Z,24.92
2022-08-22T01:46:54.398Z,24.95
2022-08-22T01:49:24.079Z,25.03
2022-08-22T01:51:53.660Z,24.93
2022-08-22T01:54:43.595Z,24.86
2022-08-22T01:57:12.177Z,24.80
2022-08-22T01:59:43.344Z,24.79
2022-08-22T02:02:52.187Z,24.85
2022-08-22T02:05:22.493Z,24.89
2022-08-22T02:07:49.099Z,24.56
2022-08-22T02:10:42.626Z,24.53
2022-08-22T02:13:13.033Z,24.52
2022-08-22T02:15:39.851Z,24.87
2022-08-22T02:18:06.431Z,24.51
2022-08-22T02:20:44.090Z,24.97
2022-08-22T02:23:26.705Z,24.93
2022-08-22T02:25:58.920Z,24.87
2022-08-22T02:28:56.711Z,24.77
2022-08-22T02:31:45.680Z,24.66
2022-08-22T02:34:53.891Z,24.40
2022-08-22T02:37:49.965Z,24.49
2022-08-22T02:40:38.368Z,24.56
2022-08-22T02:43:18.106Z,24.25
2022-08-22T02:46:17.171Z,24.41
2022-08-22T02:49:12.090Z,24.32
2022-08-22T02:52:26.584Z,24.28
2022-08-22T02:55:15.060Z,23.84
2022-08-22T02:58:15.968Z,24.17
2022-08-22T03:00:51.289Z,24.13
2022-08-22T03:03:29.087Z,24.17
2022-08-22T03:06:01.675Z,24.20
2022-08-22T03:08:31.278Z,24.19
2022-08-22T03:10:57.836Z,24.22
2022-08-22T03:13:53.764Z,23.68
2022-08-22T03:16:47.389Z,24.19
2022-08-22T03:19:22.413Z,23.76
2022-08-22T03:22:03.757Z,24.30
2022-08-22T03:24:52.353Z,24.36
2022-08-22T03:27:32.712Z,24.27
2022-08-22T03:30:07.785Z,24.18
2022-08-22T03:33:19.238Z,24.15
2022-08-22T03:35:46.029Z,24.13
2022-08-22T03:38:34.022Z,23.72
2022-08-22T03:41:06.645Z,24.09
2022-08-22T03:44:04.420Z,24.10
2022-08-22T03:46:59.265Z,23.71
2022-08-22T03:49:50.305Z,23.74
2022-08-22T03:52:23.105Z,23.61
2022-08-22T03:55:09.167Z,24.06
2022-08-22T03:57:41.866Z,23.77
2022-08-22T04:00:39.629Z,24.08
2022-08-22T04:03:26.795Z,24.01
2022-08-22T04:06:31.242Z,24.10
2022-08-22T04:09:19.485Z,23.77
2022-08-22T04:12:08.720Z,24.12
2022-08-22T04:15:29.031Z,24.03
2022-08-22T04:18:14.329Z,23.74
2022-08-22T04:21:38.765Z,23.64
2022-08-22T04:24:30.122Z,24.06
2022-08-22T04:27:20.536Z,24.08
2022-08-22T04:30:05.883Z,24.06
2022-08-22T04:32:45.547Z,24.02
2022-08-22T04:35:17.856Z,24.20
2022-08-22T04:38:21.885Z,24.20
2022-08-22T04:40:55.318Z,23.93
2022-08-22T04:43:40.932Z,24.21
2022-08-22T04:46:14.849Z,24.16
2022-08-22T04:48:48.550Z,24.16
2022-08-22T04:51:33.626Z,24.01
2022-08-22T04:54:58.888Z,24.14
2022-08-22T04:57:31.237Z,24.08
2022-08-22T05:00:01.888Z,23.95
2022-08-22T05:02:28.886Z,23.74
2022-08-22T05:05:13.547Z,23.63
2022-08-22T05:07:48.294Z,23.44
2022-08-22T05:10:28.123Z,23.95
2022-08-22T05:13:07.705Z,24.00
2022-08-22T05:15:38.852Z,24.03
2022-08-22T05:18:09.993Z,24.06
2022-08-22T05:20:40.462Z,24.18
2022-08-22T05:23:29.548Z,24.21
2022-08-22T05:26:02.230Z,24.03
2022-08-22T05:28:37.475Z,23.83
2022-08-22T05:31:09.052Z,23.88
2022-08-22T05:33:49.717Z,24.42
2022-08-22T05:36:22.938Z,24.34
2022-08-22T05:39:13.913Z,24.54
2022-08-22T05:41:41.747Z,24.50
2022-08-22T05:44:18.716Z,24.66
2022-08-22T05:46:51.426Z,24.48
2022-08-22T05:49:27.988Z,24.36
2022-08-22T05:52:27.098Z,24.74
2022-08-22T05:55:04.334Z,24.74
2022-08-22T05:57:37.271Z,24.66
2022-08-22T06:00:11.097Z,24.93
2022-08-22T06:02:52.470Z,25.00
2022-08-22T06:05:26.116Z,25.11
2022-08-22T06:07:59.282Z,24.46
2022-08-22T06:10:31.863Z,25.25
2022-08-22T06:13:02.283Z,25.34
2022-08-22T06:15:29.094Z,25.36
2022-08-22T06:18:07.333Z,25.41
2022-08-22T06:20:45.871Z,25.45
2022-08-22T06:23:18.568Z,25.46
2022-08-22T06:25:48.469Z,25.44
2022-08-22T06:28:22.860Z,25.40
2022-08-22T06:30:51.953Z,25.42
2022-08-22T06:33:23.967Z,25.20
2022-08-22T06:36:16.372Z,24.87
2022-08-22T06:39:18.626Z,25.51
2022-08-22T06:41:52.573Z,25.58
2022-08-22T06:44:27.733Z,25.54
2022-08-22T06:46:58.631Z,25.62
2022-08-22T06:49:26.946Z,26.03
2022-08-22T06:52:00.635Z,25.88
2022-08-22T06:54:34.457Z,25.89
2022-08-22T06:57:03.292Z,25.89
2022-08-22T06:59:35.384Z,25.63
2022-08-22T07:02:23.183Z,25.53
2022-08-22T07:04:51.608Z,25.42
2022-08-22T07:07:20.402Z,25.43
2022-08-22T07:09:51.282Z,25.19
2022-08-22T07:12:21.033Z,25.50
2022-08-22T07:14:52.327Z,25.36
2022-08-22T07:17:26.645Z,25.47
2022-08-22T07:20:15.660Z,25.51
2022-08-22T07:22:55.421Z,25.41
2022-08-22T07:25:24.380Z,25.51
2022-08-22T07:27:53.979Z,25.52
2022-08-22T07:30:27.378Z,25.57
2022-08-22T07:32:57.925Z,25.54
2022-08-22T07:35:53.234Z,25.60
2022-08-22T07:38:43.924Z,25.27
2022-08-22T07:42:03.087Z,25.66
2022-08-22T07:44:38.492Z,25.11
2022-08-22T07:47:11.660Z,25.78
2022-08-22T07:50:02.871Z,25.79
2022-08-22T07:52:44.687Z,25.96
2022-08-22T07:55:48.464Z,26.01
2022-08-22T07:58:17.830Z,26.10
2022-08-22T08:00:46.893Z,26.16
2022-08-22T08:03:13.999Z,26.20
2022-08-22T08:05:43.677Z,26.20
2022-08-22T08:08:41.028Z,25.68
2022-08-22T08:11:12.041Z,26.34
2022-08-22T08:13:43.870Z,25.78
2022-08-22T08:16:18.422Z,26.38
2022-08-22T08:18:48.534Z,26.47
2022-08-22T08:21:38.767Z,26.33
2022-08-22T08:24:08.544Z,26.24
2022-08-22T08:27:03.644Z,26.43
2022-08-22T08:29:32.161Z,26.52
2022-08-22T08:32:00.969Z,26.60
2022-08-22T08:34:30.208Z,26.21
2022-08-22T08:37:02.477Z,26.59
2022-08-22T08:39:42.404Z,26.75
2022-08-22T08:42:33.967Z,26.52
2022-08-22T08:45:24.659Z,26.87
2022-08-22T08:48:15.816Z,26.95
2022-08-22T08:51:16.304Z,27.00
2022-08-22T08:54:24.880Z,27.12
2022-08-22T08:57:35.390Z,27.21
2022-08-22T09:00:11.134Z,26.92
2022-08-22T09:03:30.559Z,27.41
2022-08-22T09:06:16.820Z,27.59
2022-08-22T09:09:11.018Z,27.10
2022-08-22T09:12:11.459Z,27.68
2022-08-22T09:14:56.811Z,28.00
2022-08-22T09:17:53.980Z,28.22
2022-08-22T09:20:46.495Z,28.20
2022-08-22T09:23:31.936Z,28.31
2022-08-22T09:26:25.196Z,28.38
2022-08-22T09:28:54.376Z,28.59
2022-08-22T09:31:48.217Z,28.89
2022-08-22T09:34:24.134Z,28.44
2022-08-22T09:37:06.502Z,28.47
2022-08-22T09:39:46.634Z,28.55
2022-08-22T09:42:46.311Z,28.17
2022-08-22T09:45:38.252Z,28.37
2022-08-22T09:48:13.291Z,29.02
2022-08-22T09:50:52.754Z,28.91
2022-08-22T09:53:54.384Z,28.52
2022-08-22T09:56:49.486Z,28.57
2022-08-22T09:59:26.884Z,28.65
2022-08-22T10:01:59.942Z,28.62
2022-08-22T10:04:59.435Z,28.83
2022-08-22T10:08:05.981Z,29.08
2022-08-22T10:10:43.400Z,29.51
2022-08-22T10:13:21.055Z,29.17
2022-08-22T10:16:16.132Z,29.29
2022-08-22T10:19:06.388Z,29.90
2022-08-22T10:21:44.589Z,29.47
2022-08-22T10:24:25.467Z,28.96
2022-08-22T10:26:58.127Z,29.00
2022-08-22T10:30:02.619Z,28.75
2022-08-22T10:32:38.452Z,28.59
2022-08-22T10:35:17.510Z,28.86
2022-08-22T10:38:05.896Z,28.35
2022-08-22T10:40:39.417Z,28.58
2022-08-22T10:43:28.996Z,28.35
2022-08-22T10:46:13.784Z,28.88
2022-08-22T10:48:58.944Z,29.10
2022-08-22T10:51:31.374Z,29.43
2022-08-22T10:54:26.076Z,29.47
2022-08-22T10:57:20.799Z,29.69
2022-08-22T11:00:10.673Z,29.95
2022-08-22T11:02:53.796Z,30.34
2022-08-22T11:05:24.459Z,30.20
2022-08-22T11:08:19.370Z,30.11
2022-08-22T11:11:10.260Z,29.66
2022-08-22T11:14:16.413Z,29.68
2022-08-22T11:17:30.869Z,30.02
2022-08-22T11:20:08.970Z,30.05
2022-08-22T11:23:00.308Z,30.03
2022-08-22T11:25:52.365Z,30.24
2022-08-22T11:28:38.743Z,30.32
2022-08-22T11:31:19.820Z,29.93
2022-08-22T11:33:59.681Z,30.54
2022-08-22T11:36:47.259Z,30.69
2022-08-22T11:39:41.833Z,30.12
2022-08-22T11:42:24.580Z,30.17
2022-08-22T11:44:59.213Z,30.72
2022-08-22T11:47:32.155Z,30.64
2022-08-22T11:50:13.987Z,30.93
2022-08-22T11:52:51.614Z,31.00
2022-08-22T11:55:34.536Z,30.96
2022-08-22T11:58:41.242Z,30.50
2022-08-22T12:01:19.761Z,29.90
2022-08-22T12:04:01.246Z,29.72
2022-08-22T12:06:52.066Z,30.24
2022-08-22T12:09:26.437Z,31.04
2022-08-22T12:12:33.331Z,30.91
2022-08-22T12:15:24.399Z,30.49
2022-08-22T12:18:09.453Z,30.59
2022-08-22T12:20:54.326Z,31.44
2022-08-22T12:23:48.714Z,31.59
2022-08-22T12:26:40.642Z,32.04
2022-08-22T12:29:20.212Z,32.38
2022-08-22T12:32:06.274Z,32.34
2022-08-22T12:34:36.807Z,31.41
2022-08-22T12:37:15.665Z,31.57
2022-08-22T12:40:10.508Z,31.70
2022-08-22T12:43:27.892Z,32.28
2022-08-22T12:46:38.754Z,32.43
2022-08-22T12:50:01.997Z,33.01
2022-08-22T12:52:42.009Z,32.35
2022-08-22T12:55:16.713Z,31.66
2022-08-22T12:57:43.628Z,30.99
2022-08-22T13:00:26.803Z,31.09
2022-08-22T13:02:55.065Z,31.58
2022-08-22T13:05:27.225Z,31.81
2022-08-22T13:08:05.176Z,31.21
2022-08-22T13:10:47.437Z,30.83
2022-08-22T13:13:29.491Z,30.06
2022-08-22T13:16:06.451Z,29.66
2022-08-22T13:18:39.289Z,29.89
2022-08-22T13:21:15.297Z,29.98
2022-08-22T13:23:45.956Z,29.91
2022-08-22T13:26:32.042Z,29.89
2022-08-22T13:32:00.548Z,30.30
2022-08-22T13:34:43.503Z,30.71
2022-08-22T13:37:24.548Z,30.72
2022-08-22T13:40:00.919Z,31.07
2022-08-22T13:42:32.803Z,31.10
2022-08-22T13:45:05.445Z,30.74
2022-08-22T13:47:35.794Z,30.64
2022-08-22T13:50:12.621Z,30.48
2022-08-22T13:52:52.259Z,29.92
2022-08-22T13:55:49.217Z,29.70
2022-08-22T13:58:42.145Z,29.82
2022-08-22T14:01:20.285Z,29.97
2022-08-22T14:03:58.078Z,29.98
2022-08-22T14:07:11.240Z,30.07
2022-08-22T14:09:56.548Z,30.13
2022-08-22T14:12:49.887Z,30.10
2022-08-22T14:15:23.400Z,29.89
2022-08-22T14:17:55.985Z,29.94
2022-08-22T14:20:32.255Z,29.57
2022-08-22T14:23:16.376Z,30.08
2022-08-22T14:25:44.023Z,29.73
2022-08-22T14:28:27.421Z,29.36
2022-08-22T14:31:08.468Z,28.85
2022-08-22T14:33:44.523Z,29.02
2022-08-22T14:36:20.666Z,28.90
2022-08-22T14:39:10.124Z,29.07
2022-08-22T14:41:56.348Z,29.06
2022-08-22T14:44:38.808Z,29.26
2022-08-22T14:47:54.463Z,29.25
2022-08-22T14:50:09.636Z,29.39
2022-08-22T14:52:46.434Z,29.27
2022-08-22T14:55:23.855Z,29.14
2022-08-22T14:58:15.247Z,29.34
2022-08-22T15:00:45.360Z,29.23
2022-08-22T15:03:14.604Z,29.33
2022-08-22T15:05:48.673Z,29.49
2022-08-22T15:08:27.954Z,30.18
2022-08-22T15:11:20.160Z,30.41
2022-08-22T15:14:08.391Z,30.33
2022-08-22T15:16:51.811Z,29.84
2022-08-22T15:19:34.655Z,30.06
2022-08-22T15:22:25.694Z,30.15
2022-08-22T15:25:04.433Z,30.16
2022-08-22T15:27:34.898Z,30.32
2022-08-22T15:30:20.537Z,30.19
2022-08-22T15:32:49.042Z,29.51
2022-08-22T15:35:31.282Z,29.59
2022-08-22T15:38:04.583Z,29.71
2022-08-22T15:40:45.894Z,30.06
2022-08-22T15:43:21.161Z,29.71
2022-08-22T15:45:50.827Z,29.53
2022-08-22T15:48:29.724Z,28.74
2022-08-22T15:50:58.546Z,29.19
2022-08-22T15:53:31.324Z,29.03
2022-08-22T15:56:05.556Z,28.87
2022-08-22T15:58:37.264Z,28.77
2022-08-22T16:01:20.037Z,28.98
2022-08-22T16:04:04.821Z,29.03
2022-08-22T16:06:51.421Z,28.93
2022-08-22T16:09:50.687Z,28.62
2022-08-22T16:12:33.770Z,28.87
2022-08-22T16:15:03.083Z,29.02
2022-08-22T16:17:29.734Z,29.25
2022-08-22T16:20:19.421Z,29.05
2022-08-22T16:22:56.420Z,29.03
2022-08-22T16:25:44.808Z,28.89
2022-08-22T16:28:56.461Z,28.84
2022-08-22T16:31:27.343Z,29.00
2022-08-22T16:34:16.223Z,29.04
2022-08-22T16:37:03.070Z,29.26
2022-08-22T16:39:36.259Z,29.01
2022-08-22T16:42:32.959Z,28.80
2022-08-22T16:45:02.786Z,28.83
2022-08-22T16:47:40.773Z,28.74
2022-08-22T16:50:19.543Z,28.92
2022-08-22T16:52:58.429Z,29.17
2022-08-22T16:55:31.404Z,29.10
2022-08-22T16:58:06.447Z,28.86
2022-08-22T17:03:08.762Z,28.92
2022-08-22T17:06:04.346Z,28.84
2022-08-22T17:08:46.628Z,29.22
2022-08-22T17:11:13.135Z,29.09
2022-08-22T17:14:04.031Z,29.07
2022-08-22T17:17:02.959Z,29.25
2022-08-22T17:19:40.491Z,29.05
2022-08-22T17:22:45.584Z,29.06
2022-08-22T17:25:15.017Z,29.15
2022-08-22T17:27:44.992Z,28.98
2022-08-22T17:30:22.233Z,28.92
2022-08-22T17:33:08.501Z,29.04
2022-08-22T17:36:03.058Z,28.98
2022-08-22T17:38:57.817Z,28.86
2022-08-22T17:42:01.544Z,28.41
2022-08-22T17:44:32.880Z,28.37
2022-08-22T17:46:59.498Z,28.66
2022-08-22T17:49:32.053Z,28.51
2022-08-22T17:52:11.368Z,28.65
2022-08-22T17:54:46.971Z,28.40
2022-08-22T17:57:22.260Z,28.62
2022-08-22T17:59:51.869Z,28.15
2022-08-22T18:02:30.780Z,28.26
2022-08-22T18:05:28.562Z,28.45
2022-08-22T18:08:37.208Z,28.29
2022-08-22T18:11:08.982Z,28.01
2022-08-22T18:13:35.569Z,28.20
2022-08-22T18:16:11.944Z,28.45
2022-08-22T18:18:45.967Z,28.54
2022-08-22T18:21:29.919Z,28.58
2022-08-22T18:24:01.025Z,28.34
2022-08-22T18:26:44.554Z,28.64
2022-08-22T18:29:23.363Z,28.67
2022-08-22T18:32:02.019Z,28.15
2022-08-22T18:34:43.835Z,28.41
2022-08-22T18:37:33.024Z,27.75
2022-08-22T18:40:13.635Z,28.36
2022-08-22T18:42:45.561Z,28.01
2022-08-22T18:45:43.986Z,28.38
2022-08-22T18:48:20.597Z,28.34
2022-08-22T18:50:48.055Z,28.43
2022-08-22T18:53:37.941Z,28.43
2022-08-22T18:56:30.447Z,28.41
2022-08-22T18:59:51.542Z,28.43
2022-08-22T19:02:55.302Z,28.44
2022-08-22T19:05:41.452Z,28.41
2022-08-22T19:08:39.376Z,28.47
2022-08-22T19:11:35.077Z,28.16
2022-08-22T19:14:24.963Z,28.36
2022-08-22T19:17:16.547Z,28.34
2022-08-22T19:20:08.161Z,28.13
2022-08-22T19:22:36.824Z,28.39
2022-08-22T19:25:18.719Z,28.30
2022-08-22T19:28:08.806Z,28.41
2022-08-22T19:31:23.291Z,28.33
2022-08-22T19:34:12.957Z,28.15
2022-08-22T19:36:40.393Z,28.08
2022-08-22T19:39:10.784Z,28.23
2022-08-22T19:41:44.474Z,27.97
2022-08-22T19:44:32.524Z,28.36
2022-08-22T19:47:05.948Z,28.39
2022-08-22T19:49:37.346Z,28.26
2022-08-22T19:52:16.438Z,28.37
2022-08-22T19:54:48.433Z,28.28
2022-08-22T19:57:24.935Z,28.23
2022-08-22T20:00:00.239Z,28.17
2022-08-22T20:02:37.636Z,28.10
2022-08-22T20:05:22.318Z,27.73
2022-08-22T20:08:01.168Z,27.94
2022-08-22T20:10:47.038Z,27.85
2022-08-22T20:13:19.825Z,27.84
2022-08-22T20:16:11.015Z,27.77
2022-08-22T20:19:07.267Z,27.37
2022-08-22T20:21:53.806Z,27.67
2022-08-22T20:24:29.529Z,27.62
2022-08-22T20:27:13.306Z,27.56
2022-08-22T20:29:47.167Z,27.63
2022-08-22T20:32:16.615Z,27.55
2022-08-22T20:34:45.324Z,27.67
2022-08-22T20:37:32.416Z,27.77
2022-08-22T20:40:22.981Z,27.75
2022-08-22T20:43:10.958Z,27.64
2022-08-22T20:45:48.205Z,27.55
2022-08-22T20:48:15.416Z,27.44
2022-08-22T20:50:42.089Z,27.76
2022-08-22T20:53:16.893Z,27.73
2022-08-22T20:55:56.333Z,27.55
2022-08-22T20:58:26.354Z,27.47
2022-08-22T21:00:57.093Z,27.46
2022-08-22T21:03:41.781Z,27.28
2022-08-22T21:06:19.099Z,26.88
2022-08-22T21:09:07.580Z,27.11
2022-08-22T21:11:40.232Z,27.23
2022-08-22T21:14:25.456Z,27.37
2022-08-22T21:16:53.172Z,27.40
2022-08-22T21:19:26.355Z,27.45
2022-08-22T21:21:53.982Z,27.42
2022-08-22T21:24:20.630Z,27.23
2022-08-22T21:26:54.393Z,26.56
2022-08-22T21:29:32.893Z,27.19
2022-08-22T21:32:15.338Z,27.15
2022-08-22T21:34:45.964Z,27.20
2022-08-22T21:37:18.089Z,27.04
2022-08-22T21:39:49.826Z,27.02
2022-08-22T21:42:39.962Z,26.72
2022-08-22T21:45:09.044Z,27.20
2022-08-22T21:47:39.202Z,27.20
2022-08-22T21:50:18.883Z,27.23
2022-08-22T21:52:54.672Z,27.15
2022-08-22T21:55:34.411Z,26.98
2022-08-22T21:58:12.109Z,27.16
2022-08-22T22:00:54.872Z,27.17
2022-08-22T22:03:28.653Z,27.03
2022-08-22T22:05:58.090Z,26.98
2022-08-22T22:08:29.278Z,26.95
2022-08-22T22:11:01.251Z,26.78
2022-08-22T22:13:28.603Z,26.71
2022-08-22T22:15:56.064Z,26.55
2022-08-22T22:18:26.439Z,26.58
2022-08-22T22:20:54.611Z,26.60
2022-08-22T22:23:22.537Z,26.43
2022-08-22T22:25:51.013Z,26.58
2022-08-22T22:28:38.158Z,26.58
2022-08-22T22:31:05.683Z,26.55
2022-08-22T22:33:35.611Z,26.23
2022-08-22T22:36:09.135Z,26.56
2022-08-22T22:38:37.078Z,26.57
2022-08-22T22:41:07.257Z,26.41
2022-08-22T22:43:33.925Z,26.34
2022-08-22T22:46:00.603Z,26.03
2022-08-22T22:48:27.222Z,26.20
2022-08-22T22:50:54.748Z,26.14
2022-08-22T22:53:33.799Z,26.20
2022-08-22T22:56:06.786Z,25.94
2022-08-22T22:58:35.966Z,25.76
2022-08-22T23:01:15.344Z,25.75
2022-08-22T23:03:43.117Z,25.73
2022-08-22T23:06:21.989Z,25.62
2022-08-22T23:08:49.040Z,25.69
2022-08-22T23:11:19.589Z,25.30
2022-08-22T23:13:48.256Z,25.61
2022-08-22T23:16:19.100Z,25.78
2022-08-22T23:18:46.663Z,25.86
2022-08-22T23:21:17.190Z,25.70
2022-08-22T23:23:44.966Z,25.70
2022-08-22T23:26:12.747Z,25.85
2022-08-22T23:28:40.098Z,25.90
2022-08-22T23:31:17.357Z,25.97
2022-08-22T23:33:45.371Z,25.88
2022-08-22T23:36:14.855Z,26.05
2022-08-22T23:38:41.758Z,25.73
2022-08-22T23:41:11.801Z,26.11
2022-08-22T23:43:47.120Z,26.20
2022-08-22T23:46:15.695Z,26.05
2022-08-22T23:48:42.623Z,26.01
2022-08-22T23:51:11.051Z,25.90
2022-08-22T23:53:38.236Z,25.91
2022-08-22T23:56:19.591Z,25.77
2022-08-22T23:58:47.578Z,25.89
